Time;durP1;ratioP1;P1;durP2;ratioP2;P2;SDS_P1;SDS_P2;PMS_P1;PMS_P2;Temp;Humidity;BMP_temperature;BMP_pressure;BME280_temperature;BME280_humidity;BME280_pressure;Samples;Min_cycle;Max_cycle;Signal;HPM_P1;HPM_P2
2022/11/22 00:00:27;;;;;;;;;;;128.10;2252.80;;;;;;5052469;28;19916;-75
2022/11/22 00:02:52;;;;;;;;;;;128.10;2252.80;;;;;;5050790;28;20693;-75
2022/11/22 00:05:18;;;;;;;;;;;128.10;2252.80;;;;;;5052601;28;19995;-76
2022/11/22 00:07:44;;;;;;;;;;;128.10;2022.40;;;;;;5052339;28;19967;-75
2022/11/22 00:10:10;;;;;;;;;;;128.10;2252.80;;;;;;5052471;28;19911;-75
2022/11/22 00:12:35;;;;;;;;;;;128.20;2252.80;;;;;;5052261;28;20329;-75
2022/11/22 00:15:01;;;;;;;;;;;128.00;2252.80;;;;;;5050966;28;19911;-81
2022/11/22 00:17:27;;;;;;;;;;;103.30;2227.20;;;;;;5051269;28;19905;-75
2022/11/22 00:19:52;;;;;;;;;;;128.00;2252.80;;;;;;5050682;28;19940;-76
2022/11/22 00:22:18;;;;;;;;;;;128.00;2252.80;;;;;;5051204;28;19940;-75
2022/11/22 00:24:45;;;;;;;;;;;128.00;2252.80;;;;;;5052256;28;20347;-75
2022/11/22 00:27:10;;;;;;;;;;;128.10;1920.00;;;;;;5050977;28;19904;-75
2022/11/22 00:29:36;;;;;;;;;;;128.20;2048.00;;;;;;5050750;28;20047;-75
2022/11/22 00:32:02;;;;;;;;;;;128.20;1996.80;;;;;;5052162;28;19904;-75
2022/11/22 00:34:27;;;;;;;;;;;128.30;2252.80;;;;;;5052106;28;19931;-76
2022/11/22 00:36:53;;;;;;;;;;;128.30;2252.80;;;;;;5052055;28;19959;-75
2022/11/22 00:39:18;;;;;;;;;;;128.30;2252.80;;;;;;5050825;28;19912;-75
2022/11/22 00:41:44;;;;;;;;;;;128.30;2252.80;;;;;;5052166;28;19913;-82
2022/11/22 00:44:09;;;;;;;;;;;128.40;2252.80;;;;;;5043845;28;20306;-75
2022/11/22 00:46:35;;;;;;;;;;;128.40;2252.80;;;;;;5049726;28;20020;-75
2022/11/22 00:49:00;;;;;;;;;;;128.40;2252.80;;;;;;5050426;28;19909;-75
2022/11/22 00:51:26;;;;;;;;;;;128.30;2252.80;;;;;;5051830;28;19909;-75
2022/11/22 00:53:51;;;;;;;;;;;128.30;2252.80;;;;;;5050809;28;19905;-76
2022/11/22 00:56:17;;;;;;;;;;;128.30;2252.80;;;;;;5050405;28;19955;-76
2022/11/22 00:58:43;;;;;;;;;;;128.30;2252.80;;;;;;5038554;28;19912;-76
2022/11/22 01:01:08;;;;;;;;;;;128.30;2252.80;;;;;;5038747;28;19917;-79
2022/11/22 01:03:34;;;;;;;;;;;128.30;2252.80;;;;;;5056037;28;19912;-76
2022/11/22 01:06:00;;;;;;;;;;;128.30;2252.80;;;;;;5054511;28;19908;-75
2022/11/22 01:08:25;;;;;;;;;;;128.20;2252.80;;;;;;5054886;28;20285;-77
2022/11/22 01:10:58;;;;;;;;;;;128.20;2252.80;;;;;;5053951;28;19909;-75
2022/11/22 01:13:24;;;;;;;;;;;128.10;2252.80;;;;;;5054106;28;20382;-74
2022/11/22 01:15:50;;;;;;;;;;;128.10;2252.80;;;;;;5055923;28;20595;-76
2022/11/22 01:18:15;;;;;;;;;;;128.10;2252.80;;;;;;5054152;28;19928;-75
2022/11/22 01:20:41;;;;;;;;;;;128.00;2252.80;;;;;;5054419;28;20282;-75
2022/11/22 01:23:06;;;;;;;;;;;128.00;2252.80;;;;;;5055270;28;19905;-75
2022/11/22 01:25:32;;;;;;;;;;;103.30;2227.20;;;;;;5055504;28;19995;-76
2022/11/22 01:27:57;;;;;;;;;;;128.00;2252.80;;;;;;5055069;28;19975;-76
2022/11/22 01:30:23;;;;;;;;;;;103.30;2227.20;;;;;;5055593;28;19905;-75
2022/11/22 01:32:49;;;;;;;;;;;103.30;2227.20;;;;;;5054149;28;19904;-76
2022/11/22 01:35:14;;;;;;;;;;;128.00;2252.80;;;;;;5054104;28;20385;-75
2022/11/22 01:37:40;;;;;;;;;;;103.30;2227.20;;;;;;5053913;28;19905;-74
2022/11/22 01:40:06;;;;;;;;;;;128.00;2252.80;;;;;;5053735;28;20294;-75
2022/11/22 01:42:52;;;;;;;;;;;103.30;2227.20;;;;;;5054945;28;19948;-75
2022/11/22 01:45:30;;;;;;;;;;;103.30;2227.20;;;;;;5053577;28;20286;-75
2022/11/22 01:47:58;;;;;;;;;;;103.30;2227.20;;;;;;5055211;28;19912;-75
2022/11/22 01:50:25;;;;;;;;;;;103.20;2227.20;;;;;;5055158;28;19904;-76
2022/11/22 01:52:51;;;;;;;;;;;103.30;2227.20;;;;;;5055103;28;19959;-75
2022/11/22 01:55:17;;;;;;;;;;;103.20;2227.20;;;;;;5055063;28;19904;-75
2022/11/22 01:57:43;;;;;;;;;;;103.20;2227.20;;;;;;5053523;28;19905;-76
2022/11/22 02:00:10;;;;;;;;;;;103.20;2227.20;;;;;;5053235;28;19974;-75
2022/11/22 02:02:36;;;;;;;;;;;103.30;2227.20;;;;;;5054488;28;19912;-76
2022/11/22 02:05:07;;;;;;;;;;;103.20;2227.20;;;;;;5053480;28;19905;-75
2022/11/22 02:07:40;;;;;;;;;;;103.20;2227.20;;;;;;5053102;28;19905;-76
2022/11/22 02:10:06;;;;;;;;;;;103.20;2227.20;;;;;;5054397;28;20268;-78
2022/11/22 02:12:33;;;;;;;;;;;103.20;2227.20;;;;;;5053211;28;19916;-75
2022/11/22 02:14:58;;;;;;;;;;;103.20;2022.40;;;;;;5052976;28;20417;-75
2022/11/22 02:17:25;;;;;;;;;;;103.20;2227.20;;;;;;5054710;28;20051;-75
2022/11/22 02:19:52;;;;;;;;;;;103.20;2227.20;;;;;;5053072;28;19959;-75
2022/11/22 02:22:20;;;;;;;;;;;103.20;2227.20;;;;;;5053104;28;19913;-82
2022/11/22 02:25:07;;;;;;;;;;;103.20;2227.20;;;;;;5052910;28;20055;-75
2022/11/22 02:27:33;;;;;;;;;;;103.20;2227.20;;;;;;5069362;28;19904;-75
2022/11/22 02:29:58;;;;;;;;;;;103.20;2227.20;;;;;;5052987;28;19904;-75
2022/11/22 02:32:24;;;;;;;;;;;103.20;2227.20;;;;;;5054608;28;20409;-77
2022/11/22 02:34:50;;;;;;;;;;;103.20;2227.20;;;;;;5054152;28;19905;-76
2022/11/22 02:37:24;;;;;;;;;;;103.20;2227.20;;;;;;5054212;28;19909;-75
2022/11/22 02:40:01;;;;;;;;;;;103.10;2227.20;;;;;;5051915;28;20391;-82
2022/11/22 02:42:27;;;;;;;;;;;103.00;2227.20;;;;;;5052987;28;20282;-75
2022/11/22 02:44:52;;;;;;;;;;;103.10;2227.20;;;;;;5053838;28;19911;-76
2022/11/22 02:47:18;;;;;;;;;;;103.10;2227.20;;;;;;5052858;28;19904;-76
2022/11/22 02:49:44;;;;;;;;;;;103.10;2227.20;;;;;;5052499;28;20358;-76
2022/11/22 02:52:09;;;;;;;;;;;103.00;2227.20;;;;;;5053890;28;20003;-75
2022/11/22 02:54:35;;;;;;;;;;;103.10;1894.40;;;;;;5052155;28;19916;-75
2022/11/22 02:57:03;;;;;;;;;;;103.20;1868.80;;;;;;5053916;28;20347;-81
2022/11/22 02:59:29;;;;;;;;;;;103.20;2150.40;;;;;;5052278;28;19913;-81
2022/11/22 03:01:54;;;;;;;;;;;103.20;2227.20;;;;;;5053746;28;19924;-79
2022/11/22 03:04:26;;;;;;;;;;;103.30;2227.20;;;;;;5035656;28;19995;-75
2022/11/22 03:06:55;;;;;;;;;;;103.30;2227.20;;;;;;5053617;28;19950;-75
2022/11/22 03:09:21;;;;;;;;;;;128.00;2252.80;;;;;;5053689;28;19999;-81
2022/11/22 03:11:47;;;;;;;;;;;128.00;2252.80;;;;;;5053428;28;19915;-76
2022/11/22 03:14:16;;;;;;;;;;;128.10;2252.80;;;;;;5035584;28;19904;-82
2022/11/22 03:16:42;;;;;;;;;;;128.10;2252.80;;;;;;5035476;28;19905;-76
2022/11/22 03:19:08;;;;;;;;;;;128.10;2252.80;;;;;;5035664;28;19912;-75
2022/11/22 03:21:33;;;;;;;;;;;128.20;2252.80;;;;;;5035282;28;19904;-75
2022/11/22 03:23:59;;;;;;;;;;;128.20;2252.80;;;;;;5034582;28;19959;-75
2022/11/22 03:26:24;;;;;;;;;;;128.10;2252.80;;;;;;5035620;28;19909;-75
2022/11/22 03:28:50;;;;;;;;;;;128.20;2252.80;;;;;;5035177;28;20263;-75
2022/11/22 03:31:16;;;;;;;;;;;128.10;2252.80;;;;;;5053310;28;19995;-76
2022/11/22 03:33:41;;;;;;;;;;;128.10;2252.80;;;;;;5052860;28;19905;-75
2022/11/22 03:36:07;;;;;;;;;;;128.10;2252.80;;;;;;5035322;28;19904;-75
2022/11/22 03:38:33;;;;;;;;;;;128.10;2252.80;;;;;;5053202;28;20300;-75
2022/11/22 03:40:58;;;;;;;;;;;128.20;2252.80;;;;;;5034916;28;19909;-76
2022/11/22 03:43:24;;;;;;;;;;;128.20;2252.80;;;;;;5034963;28;20367;-76
2022/11/22 03:45:50;;;;;;;;;;;128.20;2252.80;;;;;;5052710;28;19912;-77
2022/11/22 03:48:16;;;;;;;;;;;128.20;2252.80;;;;;;5034990;28;20003;-75
2022/11/22 03:50:41;;;;;;;;;;;128.20;2252.80;;;;;;5052564;28;20311;-75
2022/11/22 03:53:07;;;;;;;;;;;128.20;2252.80;;;;;;5034945;28;20294;-74
2022/11/22 03:55:32;;;;;;;;;;;128.30;2252.80;;;;;;5034601;28;19912;-75
2022/11/22 03:57:58;;;;;;;;;;;128.30;2252.80;;;;;;5052445;28;19999;-76
2022/11/22 04:00:23;;;;;;;;;;;128.20;2252.80;;;;;;5036467;28;20397;-75
2022/11/22 04:02:49;;;;;;;;;;;128.20;2252.80;;;;;;5051451;28;20294;-76
2022/11/22 04:05:14;;;;;;;;;;;128.20;2252.80;;;;;;5050880;28;19908;-75
2022/11/22 04:07:40;;;;;;;;;;;128.20;2252.80;;;;;;5052482;28;19939;-75
2022/11/22 04:10:06;;;;;;;;;;;128.20;2252.80;;;;;;5050939;28;19912;-75
2022/11/22 04:12:31;;;;;;;;;;;128.10;2252.80;;;;;;5052331;28;19952;-81
2022/11/22 04:15:06;;;;;;;;;;;128.10;2252.80;;;;;;5051027;28;19912;-75
2022/11/22 04:17:46;;;;;;;;;;;128.10;2252.80;;;;;;5050636;28;20054;-75
2022/11/22 04:23:03;;;;;;;;;;;128.10;2252.80;;;;;;5031405;28;19994;-75
2022/11/22 04:25:29;;;;;;;;;;;128.10;2252.80;;;;;;5050334;28;20021;-75
2022/11/22 04:27:55;;;;;;;;;;;128.10;2252.80;;;;;;5050831;28;19999;-76
2022/11/22 04:30:21;;;;;;;;;;;128.10;2252.80;;;;;;5050583;28;19905;-76
2022/11/22 04:32:46;;;;;;;;;;;128.00;2073.60;;;;;;5051084;28;19974;-75
2022/11/22 04:35:13;;;;;;;;;;;103.30;2227.20;;;;;;5049656;28;19905;-76
2022/11/22 04:37:38;;;;;;;;;;;103.30;1920.00;;;;;;5051071;28;19912;-75
2022/11/22 04:40:04;;;;;;;;;;;103.30;2227.20;;;;;;5051569;28;19917;-75
2022/11/22 04:45:14;;;;;;;;;;;103.20;1868.80;;;;;;5041533;28;19951;-77
2022/11/22 04:47:58;;;;;;;;;;;103.20;2048.00;;;;;;5051856;28;19932;-75
2022/11/22 04:53:08;;;;;;;;;;;103.20;2227.20;;;;;;5039900;28;20005;-81
2022/11/22 04:55:34;;;;;;;;;;;103.30;2227.20;;;;;;5050708;28;19943;-75
2022/11/22 04:58:00;;;;;;;;;;;128.00;2252.80;;;;;;5050602;28;19913;-75
2022/11/22 05:00:29;;;;;;;;;;;103.30;2227.20;;;;;;5051575;28;19920;-76
2022/11/22 05:02:55;;;;;;;;;;;103.30;2227.20;;;;;;5050756;28;19915;-75
2022/11/22 05:05:21;;;;;;;;;;;128.00;2252.80;;;;;;5051778;28;19905;-82
2022/11/22 05:07:46;;;;;;;;;;;103.20;2227.20;;;;;;5050752;28;20431;-75
2022/11/22 05:10:12;;;;;;;;;;;103.30;2227.20;;;;;;5050242;28;19913;-81
2022/11/22 05:12:39;;;;;;;;;;;103.30;2227.20;;;;;;5050509;28;19928;-76
2022/11/22 05:15:05;;;;;;;;;;;103.30;2227.20;;;;;;5051960;28;19904;-76
2022/11/22 05:17:30;;;;;;;;;;;103.30;2227.20;;;;;;5051598;28;20025;-75
2022/11/22 05:19:56;;;;;;;;;;;103.30;2227.20;;;;;;5051810;28;20011;-75
2022/11/22 05:23:53;;;;;;;;;;;103.30;2227.20;;;;;;5050339;28;19911;-76
2022/11/22 05:25:07;;;;;;;;;;;103.30;2227.20;;;;;;5051637;28;19951;-75
2022/11/22 05:27:33;;;;;;;;;;;128.00;2252.80;;;;;;5050177;28;19948;-76
2022/11/22 05:29:58;;;;;;;;;;;103.20;2227.20;;;;;;5051508;28;19951;-75
2022/11/22 05:32:24;;;;;;;;;;;128.00;2252.80;;;;;;5051686;28;19904;-75
2022/11/22 05:34:49;;;;;;;;;;;103.30;2227.20;;;;;;5050210;28;19965;-75
2022/11/22 05:37:15;;;;;;;;;;;103.30;2227.20;;;;;;5050355;28;19955;-77
2022/11/22 05:39:40;;;;;;;;;;;103.30;2227.20;;;;;;5049695;28;20385;-74
2022/11/22 05:42:06;;;;;;;;;;;103.30;2227.20;;;;;;5049530;28;20502;-76
2022/11/22 05:44:32;;;;;;;;;;;103.30;2227.20;;;;;;5050768;28;19963;-76
2022/11/22 05:46:59;;;;;;;;;;;128.00;2252.80;;;;;;5053135;28;19912;-76
2022/11/22 05:49:24;;;;;;;;;;;103.30;2227.20;;;;;;5054347;28;20013;-76
2022/11/22 05:51:50;;;;;;;;;;;103.30;2227.20;;;;;;5055235;28;19912;-76
2022/11/22 05:54:16;;;;;;;;;;;128.40;2252.80;;;;;;5055118;28;20359;-82
2022/11/22 05:56:41;;;;;;;;;;;103.30;2227.20;;;;;;5053586;28;20434;-77
2022/11/22 05:59:07;;;;;;;;;;;103.30;2227.20;;;;;;5054899;28;19912;-75
2022/11/22 06:01:32;;;;;;;;;;;103.20;2227.20;;;;;;5052838;28;19916;-75
2022/11/22 06:03:58;;;;;;;;;;;103.30;2227.20;;;;;;5053739;28;20366;-75
2022/11/22 06:06:23;;;;;;;;;;;103.30;2227.20;;;;;;5054604;28;20271;-83
2022/11/22 06:08:50;;;;;;;;;;;103.30;2227.20;;;;;;5053610;28;19948;-80
2022/11/22 06:11:16;;;;;;;;;;;103.30;2227.20;;;;;;5053329;28;19923;-80
2022/11/22 06:13:43;;;;;;;;;;;128.00;2252.80;;;;;;5054795;28;19909;-78
2022/11/22 06:16:08;;;;;;;;;;;128.10;2252.80;;;;;;5053130;28;20003;-76
2022/11/22 06:18:34;;;;;;;;;;;128.10;2252.80;;;;;;5053707;28;20003;-76
2022/11/22 06:21:10;;;;;;;;;;;128.20;2252.80;;;;;;5052695;28;19913;-78
2022/11/22 06:23:35;;;;;;;;;;;128.20;2252.80;;;;;;5054868;28;19908;-80
2022/11/22 06:26:02;;;;;;;;;;;128.20;2252.80;;;;;;5054246;28;19904;-79
2022/11/22 06:28:28;;;;;;;;;;;128.30;2252.80;;;;;;5053947;28;19905;-80
2022/11/22 06:30:59;;;;;;;;;;;128.70;2252.80;;;;;;5049447;28;19915;-80
2022/11/22 06:33:25;;;;;;;;;;;128.40;2252.80;;;;;;5044908;28;19990;-81
2022/11/22 06:35:50;;;;;;;;;;;128.40;2252.80;;;;;;5054210;28;19908;-80
2022/11/22 06:38:16;;;;;;;;;;;128.50;2252.80;;;;;;5043684;28;19905;-77
2022/11/22 06:40:41;;;;;;;;;;;128.60;2252.80;;;;;;5035059;28;20359;-77
2022/11/22 06:43:07;;;;;;;;;;;128.60;1996.80;;;;;;5043194;28;19979;-76
2022/11/22 06:45:32;;;;;;;;;;;128.70;2022.40;;;;;;5035190;28;19952;-79
2022/11/22 06:47:58;;;;;;;;;;;128.80;2252.80;;;;;;5038754;28;19906;-80
2022/11/22 06:50:23;;;;;;;;;;;128.80;2252.80;;;;;;5013083;28;19955;-79
2022/11/22 06:52:50;;;;;;;;;;;128.90;2252.80;;;;;;5019643;28;19905;-80
2022/11/22 06:55:15;;;;;;;;;;;128.90;2252.80;;;;;;5034462;28;20042;-79
2022/11/22 06:57:41;;;;;;;;;;;153.60;2252.80;;;;;;5037849;28;19904;-79
2022/11/22 07:00:07;;;;;;;;;;;153.60;2252.80;;;;;;5043273;28;19924;-83
2022/11/22 07:02:33;;;;;;;;;;;153.70;2252.80;;;;;;5030496;28;20430;-78
2022/11/22 07:04:58;;;;;;;;;;;153.70;2252.80;;;;;;5010817;28;19905;-79
2022/11/22 07:07:24;;;;;;;;;;;153.80;2252.80;;;;;;5026870;28;19948;-77
2022/11/22 07:09:49;;;;;;;;;;;153.90;2252.80;;;;;;5009492;28;19905;-75
2022/11/22 07:12:15;;;;;;;;;;;153.90;2252.80;;;;;;5033347;28;19925;-76
2022/11/22 07:14:40;;;;;;;;;;;154.00;2252.80;;;;;;5003614;28;20347;-76
2022/11/22 07:17:06;;;;;;;;;;;154.00;2252.80;;;;;;5013806;28;19960;-75
2022/11/22 07:19:32;;;;;;;;;;;154.10;2252.80;;;;;;5025814;28;19917;-79
2022/11/22 07:21:57;;;;;;;;;;;154.10;2252.80;;;;;;5033269;28;20309;-76
2022/11/22 07:24:23;;;;;;;;;;;154.20;2252.80;;;;;;5020862;28;19915;-81
2022/11/22 07:26:48;;;;;;;;;;;154.20;2252.80;;;;;;5007735;28;19912;-79
2022/11/22 07:29:14;;;;;;;;;;;154.30;2252.80;;;;;;4998298;28;20366;-80
2022/11/22 07:31:40;;;;;;;;;;;154.40;2252.80;;;;;;5016151;28;19926;-80
2022/11/22 07:34:05;;;;;;;;;;;154.40;2252.80;;;;;;5015952;28;19908;-81
2022/11/22 07:36:31;;;;;;;;;;;154.40;2252.80;;;;;;5033411;28;20386;-79
2022/11/22 07:38:56;;;;;;;;;;;154.50;2252.80;;;;;;5033823;28;19913;-79
2022/11/22 07:41:22;;;;;;;;;;;179.20;2252.80;;;;;;5013456;28;19992;-78
2022/11/22 07:43:48;;;;;;;;;;;179.30;2252.80;;;;;;5030801;28;19916;-77
2022/11/22 07:46:21;;;;;;;;;;;179.30;2252.80;;;;;;5007851;28;19912;-78
2022/11/22 07:48:48;;;;;;;;;;;179.40;2252.80;;;;;;5011165;28;19906;-77
2022/11/22 07:51:14;;;;;;;;;;;179.40;2252.80;;;;;;5016653;28;19982;-81
2022/11/22 07:53:39;;;;;;;;;;;179.40;2252.80;;;;;;5015804;28;19916;-79
2022/11/22 07:56:06;;;;;;;;;;;179.50;2252.80;;;;;;5015761;28;19920;-81
2022/11/22 07:58:31;;;;;;;;;;;179.50;2252.80;;;;;;5015307;28;19920;-82
2022/11/22 08:00:57;;;;;;;;;;;179.50;2252.80;;;;;;5033143;28;19917;-84
2022/11/22 08:03:22;;;;;;;;;;;179.60;2252.80;;;;;;5007078;28;19928;-85
2022/11/22 08:05:49;;;;;;;;;;;179.70;2252.80;;;;;;4996961;28;19909;-83
2022/11/22 08:08:14;;;;;;;;;;;179.70;2252.80;;;;;;5009527;28;20375;-80
2022/11/22 08:10:40;;;;;;;;;;;179.80;2252.80;;;;;;5008366;28;19909;-84
2022/11/22 08:13:05;;;;;;;;;;;179.80;2252.80;;;;;;5028590;28;19913;-80
2022/11/22 08:15:31;;;;;;;;;;;179.80;2252.80;;;;;;4996500;28;19905;-79
2022/11/22 08:17:57;;;;;;;;;;;179.90;2252.80;;;;;;4999069;28;19913;-83
2022/11/22 08:20:23;;;;;;;;;;;180.00;2252.80;;;;;;5015458;28;19971;-79
2022/11/22 08:22:49;;;;;;;;;;;180.00;2252.80;;;;;;5015861;28;19941;-80
2022/11/22 08:25:14;;;;;;;;;;;180.00;2252.80;;;;;;5015765;28;19912;-80
2022/11/22 08:27:40;;;;;;;;;;;180.00;2252.80;;;;;;5015909;28;19905;-78
2022/11/22 08:30:07;;;;;;;;;;;179.90;2252.80;;;;;;5001001;28;19915;-78
2022/11/22 08:32:32;;;;;;;;;;;179.90;2252.80;;;;;;5004840;28;19905;-79
2022/11/22 08:34:58;;;;;;;;;;;179.90;2252.80;;;;;;4999118;28;19912;-77
2022/11/22 08:37:24;;;;;;;;;;;179.90;2252.80;;;;;;5015281;28;20386;-78
2022/11/22 08:39:49;;;;;;;;;;;179.90;2252.80;;;;;;5015476;28;19917;-83
2022/11/22 08:42:15;;;;;;;;;;;180.00;2252.80;;;;;;5015566;28;19912;-79
2022/11/22 08:44:40;;;;;;;;;;;180.00;2252.80;;;;;;5015675;28;19999;-80
2022/11/22 08:47:06;;;;;;;;;;;180.00;2252.80;;;;;;5012155;28;19910;-79
2022/11/22 08:49:32;;;;;;;;;;;180.00;2252.80;;;;;;4995030;28;19905;-80
2022/11/22 08:51:57;;;;;;;;;;;180.00;2252.80;;;;;;4995369;28;19952;-78
2022/11/22 08:54:23;;;;;;;;;;;180.10;2252.80;;;;;;5023435;28;19940;-78
2022/11/22 08:56:48;;;;;;;;;;;180.10;2252.80;;;;;;5016149;28;19913;-82
2022/11/22 08:59:14;;;;;;;;;;;204.80;2252.80;;;;;;5006136;28;19913;-79
2022/11/22 09:01:39;;;;;;;;;;;204.80;2252.80;;;;;;5042876;28;19972;-86
2022/11/22 09:04:05;;;;;;;;;;;204.90;2252.80;;;;;;5051736;28;19916;-83
2022/11/22 09:06:30;;;;;;;;;;;204.90;2252.80;;;;;;5048037;28;19991;-82
2022/11/22 09:08:56;;;;;;;;;;;205.00;2252.80;;;;;;5042036;28;19908;-86
2022/11/22 09:11:22;;;;;;;;;;;205.00;2252.80;;;;;;5023916;28;20274;-84
2022/11/22 09:13:47;;;;;;;;;;;205.00;2252.80;;;;;;5051889;28;19909;-83
2022/11/22 09:16:14;;;;;;;;;;;205.00;2252.80;;;;;;5024893;28;19912;-82
2022/11/22 09:18:40;;;;;;;;;;;205.00;2252.80;;;;;;5020333;28;19916;-83
2022/11/22 09:21:07;;;;;;;;;;;205.10;2252.80;;;;;;5035887;28;19977;-82
2022/11/22 09:23:33;;;;;;;;;;;205.00;2252.80;;;;;;5042665;28;20294;-82
2022/11/22 09:26:00;;;;;;;;;;;205.10;2252.80;;;;;;5059370;28;19908;-80
2022/11/22 09:28:26;;;;;;;;;;;205.10;2252.80;;;;;;5058760;28;20186;-81
2022/11/22 09:31:01;;;;;;;;;;;205.10;2252.80;;;;;;5077094;28;20385;-79
2022/11/22 09:33:28;;;;;;;;;;;205.10;2252.80;;;;;;5054589;28;20362;-85
2022/11/22 09:36:00;;;;;;;;;;;205.10;2252.80;;;;;;5056612;28;19912;-82
2022/11/22 09:38:26;;;;;;;;;;;205.10;2252.80;;;;;;5038999;28;19976;-83
2022/11/22 09:40:52;;;;;;;;;;;205.10;2252.80;;;;;;5045390;28;19950;-82
2022/11/22 09:43:20;;;;;;;;;;;205.20;2252.80;;;;;;5044872;28;19908;-78
2022/11/22 09:45:58;;;;;;;;;;;205.10;2252.80;;;;;;5020844;28;20389;-82
2022/11/22 09:48:29;;;;;;;;;;;205.10;2252.80;;;;;;5031440;28;19958;-83
2022/11/22 09:51:02;;;;;;;;;;;205.20;2252.80;;;;;;5057898;28;20379;-79
2022/11/22 09:53:40;;;;;;;;;;;205.20;2252.80;;;;;;5058084;28;19916;-85
2022/11/22 09:56:11;;;;;;;;;;;205.20;2252.80;;;;;;5058429;28;20050;-84
2022/11/22 09:58:50;;;;;;;;;;;205.30;2252.80;;;;;;5057901;28;19916;-82
2022/11/22 10:01:27;;;;;;;;;;;205.30;2252.80;;;;;;5075766;28;20325;-79
2022/11/22 10:03:56;;;;;;;;;;;205.40;2252.80;;;;;;5050387;28;19905;-80
2022/11/22 10:06:24;;;;;;;;;;;205.40;2252.80;;;;;;5051909;28;19904;-83
2022/11/22 10:08:58;;;;;;;;;;;205.40;2252.80;;;;;;5059421;28;20385;-81
2022/11/22 10:11:29;;;;;;;;;;;205.50;2252.80;;;;;;5064684;28;19909;-80
2022/11/22 10:13:56;;;;;;;;;;;205.60;2252.80;;;;;;5072958;28;19935;-84
2022/11/22 10:16:28;;;;;;;;;;;205.70;2252.80;;;;;;5058148;28;19905;-79
2022/11/22 10:19:13;;;;;;;;;;;205.70;2252.80;;;;;;5032746;28;19924;-84
2022/11/22 10:21:38;;;;;;;;;;;230.40;2252.80;;;;;;5049887;28;20464;-83
2022/11/22 10:24:05;;;;;;;;;;;230.50;2252.80;;;;;;5058155;28;20362;-81
2022/11/22 10:26:32;;;;;;;;;;;230.50;2252.80;;;;;;5037993;28;19904;-83
2022/11/22 10:29:11;;;;;;;;;;;230.50;2252.80;;;;;;5048884;28;19998;-79
2022/11/22 10:31:47;;;;;;;;;;;230.60;2252.80;;;;;;5057843;28;19908;-81
2022/11/22 10:34:16;;;;;;;;;;;230.60;2252.80;;;;;;5061326;28;19936;-82
2022/11/22 10:36:41;;;;;;;;;;;230.70;2252.80;;;;;;5056881;28;19912;-81
2022/11/22 10:39:25;;;;;;;;;;;230.80;2252.80;;;;;;5056281;28;19912;-81
2022/11/22 10:42:10;;;;;;;;;;;230.90;2252.80;;;;;;5055393;28;20263;-79
2022/11/22 10:44:59;;;;;;;;;;;231.20;2252.80;;;;;;5059334;28;19905;-80
2022/11/22 10:47:43;;;;;;;;;;;256.00;2252.80;;;;;;5072871;28;20350;-81
2022/11/22 10:50:14;;;;;;;;;;;256.10;2252.80;;;;;;5057090;28;19905;-79
2022/11/22 10:52:59;;;;;;;;;;;256.20;2252.80;;;;;;5057737;28;19938;-85
2022/11/22 10:55:44;;;;;;;;;;;256.30;2252.80;;;;;;5041895;28;19904;-83
2022/11/22 10:58:16;;;;;;;;;;;256.30;2252.80;;;;;;5037321;28;19905;-79
2022/11/22 11:00:47;;;;;;;;;;;256.40;2252.80;;;;;;5027882;28;19917;-78
2022/11/22 11:03:13;;;;;;;;;;;256.40;2252.80;;;;;;5034499;28;19905;-80
2022/11/22 11:05:57;;;;;;;;;;;256.30;2252.80;;;;;;5049050;28;19983;-80
2022/11/22 11:08:29;;;;;;;;;;;256.20;2252.80;;;;;;5053156;28;20394;-79
2022/11/22 11:10:55;;;;;;;;;;;256.10;2252.80;;;;;;5055947;28;19909;-81
2022/11/22 11:13:23;;;;;;;;;;;256.10;2252.80;;;;;;5055978;28;19909;-78
2022/11/22 11:15:50;;;;;;;;;;;256.10;2252.80;;;;;;5055767;28;20678;-80
2022/11/22 11:18:20;;;;;;;;;;;256.10;2252.80;;;;;;5055829;28;19905;-79
2022/11/22 11:20:46;;;;;;;;;;;256.00;2252.80;;;;;;5055481;28;19904;-79
2022/11/22 11:23:13;;;;;;;;;;;256.00;2252.80;;;;;;5056305;28;19904;-77
2022/11/22 11:25:39;;;;;;;;;;;256.00;2252.80;;;;;;5056160;28;19959;-81
2022/11/22 11:28:05;;;;;;;;;;;256.00;2252.80;;;;;;5056245;28;19904;-81
2022/11/22 11:30:57;;;;;;;;;;;256.00;2252.80;;;;;;5074243;28;19904;-80
2022/11/22 11:33:25;;;;;;;;;;;231.30;2252.80;;;;;;5037572;28;19904;-81
2022/11/22 11:35:53;;;;;;;;;;;231.30;2252.80;;;;;;5056414;28;19943;-79
2022/11/22 11:38:30;;;;;;;;;;;231.30;2252.80;;;;;;5055922;28;19912;-79
2022/11/22 11:40:56;;;;;;;;;;;231.30;2252.80;;;;;;5055791;28;19962;-82
2022/11/22 11:43:23;;;;;;;;;;;256.00;2252.80;;;;;;5063590;28;19963;-78
2022/11/22 11:45:48;;;;;;;;;;;256.00;2252.80;;;;;;5073211;28;19904;-79
2022/11/22 11:48:27;;;;;;;;;;;256.00;2252.80;;;;;;5055778;28;19950;-79
2022/11/22 11:51:11;;;;;;;;;;;256.00;2252.80;;;;;;5044151;28;19905;-78
2022/11/22 11:53:39;;;;;;;;;;;256.10;2252.80;;;;;;5038768;28;19909;-83
2022/11/22 11:56:23;;;;;;;;;;;256.10;2252.80;;;;;;5049742;28;20373;-80
2022/11/22 11:58:53;;;;;;;;;;;256.10;2252.80;;;;;;5030525;28;19919;-79
2022/11/22 12:01:19;;;;;;;;;;;256.10;2252.80;;;;;;5053401;28;19916;-79
2022/11/22 12:03:59;;;;;;;;;;;256.10;2252.80;;;;;;5055451;28;19948;-79
2022/11/22 12:06:28;;;;;;;;;;;256.10;2252.80;;;;;;5055389;28;19904;-80
2022/11/22 12:08:54;;;;;;;;;;;256.20;2252.80;;;;;;5073116;28;19904;-78
2022/11/22 12:11:24;;;;;;;;;;;256.20;2252.80;;;;;;5073149;28;19914;-81
2022/11/22 12:13:53;;;;;;;;;;;256.20;2252.80;;;;;;5055525;28;20373;-82
2022/11/22 12:16:22;;;;;;;;;;;256.20;2252.80;;;;;;5055605;28;19927;-82
2022/11/22 12:18:53;;;;;;;;;;;256.20;2252.80;;;;;;5055612;28;19912;-81
2022/11/22 12:21:22;;;;;;;;;;;256.20;2252.80;;;;;;5038764;28;20230;-81
2022/11/22 12:23:50;;;;;;;;;;;256.20;2252.80;;;;;;5045647;28;19904;-83
2022/11/22 12:26:16;;;;;;;;;;;256.20;2252.80;;;;;;5039872;28;19915;-81
2022/11/22 12:28:42;;;;;;;;;;;256.20;2252.80;;;;;;5043811;28;19995;-83
2022/11/22 12:31:13;;;;;;;;;;;256.20;2252.80;;;;;;5041891;28;19905;-82
2022/11/22 12:33:40;;;;;;;;;;;256.20;2252.80;;;;;;5035778;28;19966;-81
2022/11/22 12:36:11;;;;;;;;;;;256.20;2252.80;;;;;;5034631;28;20007;-81
2022/11/22 12:38:39;;;;;;;;;;;256.20;2252.80;;;;;;5055193;28;19916;-81
2022/11/22 12:41:06;;;;;;;;;;;256.20;2252.80;;;;;;5055320;28;19912;-81
2022/11/22 12:43:52;;;;;;;;;;;256.20;2252.80;;;;;;5059877;28;19909;-78
2022/11/22 12:46:17;;;;;;;;;;;256.20;2252.80;;;;;;5055021;28;20373;-86
2022/11/22 12:48:48;;;;;;;;;;;256.20;2252.80;;;;;;5055236;28;19905;-79
2022/11/22 12:51:26;;;;;;;;;;;256.20;2252.80;;;;;;5055138;28;19911;-79
2022/11/22 12:53:54;;;;;;;;;;;256.10;2252.80;;;;;;5054893;28;20425;-80
2022/11/22 12:56:20;;;;;;;;;;;256.10;2252.80;;;;;;5072988;28;19911;-89
2022/11/22 12:58:48;;;;;;;;;;;256.00;2252.80;;;;;;5077221;28;19916;-80
2022/11/22 13:01:16;;;;;;;;;;;231.30;2252.80;;;;;;5059470;28;19920;-80
2022/11/22 13:03:52;;;;;;;;;;;231.30;2252.80;;;;;;5077150;28;19904;-80
2022/11/22 13:06:20;;;;;;;;;;;231.30;2252.80;;;;;;5059572;28;19911;-85
2022/11/22 13:08:50;;;;;;;;;;;231.30;2252.80;;;;;;5049617;28;19951;-85
2022/11/22 13:11:25;;;;;;;;;;;231.30;2252.80;;;;;;5031036;28;19923;-85
2022/11/22 13:13:53;;;;;;;;;;;231.10;2252.80;;;;;;5058202;28;19915;-82
2022/11/22 13:16:18;;;;;;;;;;;231.30;2252.80;;;;;;5059026;28;19908;-85
2022/11/22 13:18:54;;;;;;;;;;;231.30;2252.80;;;;;;5059693;28;20300;-84
2022/11/22 13:21:38;;;;;;;;;;;231.30;2252.80;;;;;;5038583;28;19905;-80
2022/11/22 13:24:23;;;;;;;;;;;231.30;2252.80;;;;;;5037708;28;20309;-79
2022/11/22 13:26:48;;;;;;;;;;;231.20;2252.80;;;;;;5052467;28;19911;-80
2022/11/22 13:29:25;;;;;;;;;;;231.20;2252.80;;;;;;5048819;28;19905;-88
2022/11/22 13:31:59;;;;;;;;;;;231.20;2252.80;;;;;;5031852;28;19905;-82
2022/11/22 13:34:25;;;;;;;;;;;231.20;2252.80;;;;;;5038499;28;19944;-80
2022/11/22 13:36:51;;;;;;;;;;;231.20;2252.80;;;;;;5050478;28;19905;-84
2022/11/22 13:39:19;;;;;;;;;;;231.20;2252.80;;;;;;5057790;28;20002;-80
2022/11/22 13:41:52;;;;;;;;;;;231.20;2252.80;;;;;;5065751;28;19917;-77
2022/11/22 13:44:20;;;;;;;;;;;231.20;2252.80;;;;;;5029113;28;19905;-78
2022/11/22 13:46:49;;;;;;;;;;;231.20;2252.80;;;;;;5058206;28;19908;-82
2022/11/22 13:49:28;;;;;;;;;;;231.20;2252.80;;;;;;5058373;28;19912;-78
2022/11/22 13:51:57;;;;;;;;;;;231.20;2252.80;;;;;;5076496;28;19904;-80
2022/11/22 13:54:32;;;;;;;;;;;231.20;2252.80;;;;;;5075437;28;19958;-83